createdAt,value
2022-08-24T00:02:02.092Z,97411.81
2022-08-24T00:04:32.083Z,97409.91
2022-08-24T00:07:00.422Z,97416.25
2022-08-24T00:09:28.221Z,97411.59
2022-08-24T00:11:57.558Z,97416.47
2022-08-24T00:14:25.518Z,97416.56
2022-08-24T00:16:54.120Z,97412.53
2022-08-24T00:19:22.138Z,97412.50
2022-08-24T00:21:50.567Z,97421.50
2022-08-24T00:24:18.444Z,97413.72
2022-08-24T00:26:47.504Z,97417.56
2022-08-24T00:29:19.181Z,97420.66
2022-08-24T00:34:40.540Z,97413.50
2022-08-24T00:37:13.878Z,97413.50
2022-08-24T00:39:42.050Z,97408.72
2022-08-24T00:42:10.010Z,97413.50
2022-08-24T00:44:39.178Z,97412.28
2022-08-24T00:47:15.082Z,97411.75
2022-08-24T00:49:46.953Z,97405.84
2022-08-24T00:52:19.512Z,97414.91
2022-08-24T00:54:51.462Z,97414.94
2022-08-24T00:57:22.355Z,97413.44
2022-08-24T00:59:56.648Z,97409.13
2022-08-24T01:02:30.306Z,97414.06
2022-08-24T01:05:01.575Z,97415.97
2022-08-24T01:07:32.737Z,97415.22
2022-08-24T01:10:04.013Z,97411.47
2022-08-24T01:12:34.245Z,97410.28
2022-08-24T01:15:07.569Z,97407.13
2022-08-24T01:17:55.334Z,97408.19
2022-08-24T01:20:26.312Z,97414.06
2022-08-24T01:23:03.216Z,97412.63
2022-08-24T01:25:34.404Z,97410.72
2022-08-24T01:28:07.071Z,97417.44
2022-08-24T01:30:36.420Z,97406.69
2022-08-24T01:33:08.369Z,97412.72
2022-08-24T01:35:38.471Z,97409.00
2022-08-24T01:38:11.789Z,97408.16
2022-08-24T01:40:45.147Z,97403.53
2022-08-24T01:43:15.214Z,97405.22
2022-08-24T01:45:44.003Z,97411.53
2022-08-24T01:48:13.777Z,97403.22
2022-08-24T01:50:41.649Z,97401.66
2022-08-24T01:53:11.014Z,97406.69
2022-08-24T01:55:39.045Z,97413.66
2022-08-24T01:58:08.953Z,97413.44
2022-08-24T02:00:37.666Z,97413.66
2022-08-24T02:03:06.036Z,97403.94
2022-08-24T02:05:34.581Z,97409.66
2022-08-24T02:08:02.598Z,97410.63
2022-08-24T02:10:30.974Z,97416.28
2022-08-24T02:12:59.957Z,97422.72
2022-08-24T02:15:31.852Z,97417.13
2022-08-24T02:18:01.135Z,97416.91
2022-08-24T02:20:30.336Z,97415.97
2022-08-24T02:22:59.096Z,97413.00
2022-08-24T02:25:30.572Z,97412.78
2022-08-24T02:27:59.467Z,97423.94
2022-08-24T02:30:29.875Z,97425.03
2022-08-24T02:32:59.390Z,97431.25
2022-08-24T02:35:31.052Z,97428.19
2022-08-24T02:37:59.715Z,97428.84
2022-08-24T02:40:29.262Z,97439.38
2022-08-24T02:42:57.557Z,97436.88
2022-08-24T02:45:26.114Z,97436.31
2022-08-24T02:47:55.480Z,97436.66
2022-08-24T02:50:25.225Z,97443.63
2022-08-24T02:52:54.317Z,97439.00
2022-08-24T02:55:22.513Z,97435.91
2022-08-24T02:57:52.999Z,97435.94
2022-08-24T03:00:22.725Z,97439.19
2022-08-24T03:02:56.140Z,97442.16
2022-08-24T03:05:26.162Z,97436.13
2022-08-24T03:07:54.390Z,97444.13
2022-08-24T03:10:23.288Z,97434.59
2022-08-24T03:12:51.739Z,97441.09
2022-08-24T03:15:22.690Z,97441.50
2022-08-24T03:17:51.645Z,97442.53
2022-08-24T03:20:23.298Z,97448.69
2022-08-24T03:22:52.107Z,97433.06
2022-08-24T03:25:24.696Z,97430.81
2022-08-24T03:27:53.085Z,97436.88
2022-08-24T03:30:21.346Z,97443.50
2022-08-24T03:32:51.181Z,97438.13
2022-08-24T03:35:22.355Z,97432.41
2022-08-24T03:37:50.892Z,97432.63
2022-08-24T03:40:23.156Z,97432.22
2022-08-24T03:42:56.279Z,97436.66
2022-08-24T03:45:24.668Z,97437.72
2022-08-24T03:47:53.271Z,97438.13
2022-08-24T03:50:24.001Z,97432.16
2022-08-24T03:52:52.973Z,97438.94
2022-08-24T03:55:21.026Z,97434.28
2022-08-24T03:57:48.953Z,97435.78
2022-08-24T04:00:17.618Z,97432.41
2022-08-24T04:02:54.640Z,97435.03
2022-08-24T04:05:26.571Z,97442.16
2022-08-24T04:07:54.598Z,97444.44
2022-08-24T04:10:22.471Z,97441.41
2022-08-24T04:12:50.329Z,97445.66
2022-08-24T04:15:24.389Z,97449.41
2022-08-24T04:17:52.304Z,97448.34
2022-08-24T04:20:20.285Z,97458.66
2022-08-24T04:22:49.482Z,97450.22
2022-08-24T04:25:20.678Z,97450.97
2022-08-24T04:27:52.212Z,97456.72
2022-08-24T04:30:20.225Z,97458.03
2022-08-24T04:33:15.501Z,97458.88
2022-08-24T04:35:48.172Z,97462.22
2022-08-24T04:38:19.833Z,97464.19
2022-08-24T04:41:06.197Z,97456.81
2022-08-24T04:43:35.731Z,97460.25
2022-08-24T04:46:06.667Z,97463.41
2022-08-24T04:48:35.089Z,97463.84
2022-08-24T04:51:04.118Z,97465.63
2022-08-24T04:53:33.912Z,97469.56
2022-08-24T04:56:02.161Z,97475.78
2022-08-24T04:58:32.036Z,97474.72
2022-08-24T05:01:00.867Z,97473.03
2022-08-24T05:03:28.790Z,97477.66
2022-08-24T05:05:56.676Z,97469.84
2022-08-24T05:08:24.509Z,97464.91
2022-08-24T05:10:53.971Z,97478.19
2022-08-24T05:13:22.155Z,97481.34
2022-08-24T05:15:50.287Z,97483.47
2022-08-24T05:18:19.221Z,97488.44
2022-08-24T05:20:48.626Z,97493.50
2022-08-24T05:23:16.521Z,97488.63
2022-08-24T05:25:44.356Z,97491.06
2022-08-24T05:28:13.487Z,97481.88
2022-08-24T05:30:42.840Z,97493.72
2022-08-24T05:33:11.578Z,97491.28
2022-08-24T05:35:44.384Z,97490.53
2022-08-24T05:38:13.910Z,97495.41
2022-08-24T05:40:42.997Z,97487.81
2022-08-24T05:43:11.221Z,97496.84
2022-08-24T05:45:44.394Z,97488.00
2022-08-24T05:48:12.844Z,97499.00
2022-08-24T05:51:16.171Z,97509.75
2022-08-24T05:53:54.124Z,97497.41
2022-08-24T05:56:23.822Z,97503.59
2022-08-24T05:58:51.620Z,97500.66
2022-08-24T06:01:22.741Z,97503.50
2022-08-24T06:03:53.351Z,97505.31
2022-08-24T06:06:23.309Z,97501.31
2022-08-24T06:08:55.092Z,97501.53
2022-08-24T06:11:30.072Z,97503.84
2022-08-24T06:14:01.906Z,97496.25
2022-08-24T06:16:36.099Z,97501.34
2022-08-24T06:19:06.508Z,97506.28
2022-08-24T06:21:34.798Z,97500.91
2022-08-24T06:24:02.926Z,97496.75
2022-08-24T06:26:49.111Z,97503.09
2022-08-24T06:29:18.288Z,97505.31
2022-08-24T06:32:13.994Z,97504.47
2022-08-24T06:34:42.281Z,97506.91
2022-08-24T06:37:11.250Z,97506.38
2022-08-24T06:39:39.836Z,97509.16
2022-08-24T06:42:07.848Z,97509.53
2022-08-24T06:44:36.014Z,97502.28
2022-08-24T06:47:15.410Z,97506.69
2022-08-24T06:49:43.666Z,97510.28
2022-08-24T06:52:12.190Z,97511.63
2022-08-24T06:54:40.534Z,97512.09
2022-08-24T06:57:08.700Z,97524.34
2022-08-24T06:59:36.574Z,97517.53
2022-08-24T07:02:05.057Z,97527.31
2022-08-24T07:04:36.353Z,97528.34
2022-08-24T07:07:24.405Z,97530.41
2022-08-24T07:09:52.289Z,97526.88
2022-08-24T07:12:20.769Z,97529.25
2022-08-24T07:14:48.720Z,97523.78
2022-08-24T07:17:16.573Z,97522.03
2022-08-24T07:19:46.471Z,97524.31
2022-08-24T07:22:18.236Z,97527.00
2022-08-24T07:24:46.588Z,97527.13
2022-08-24T07:27:15.269Z,97528.69
2022-08-24T07:29:52.821Z,97525.22
2022-08-24T07:32:30.065Z,97526.66
2022-08-24T07:34:59.892Z,97522.00
2022-08-24T07:37:40.705Z,97524.47
2022-08-24T07:40:10.314Z,97525.44
2022-08-24T07:42:39.864Z,97518.59
2022-08-24T07:45:08.514Z,97524.25
2022-08-24T07:47:40.488Z,97519.00
2022-08-24T07:50:25.840Z,97523.66
2022-08-24T07:52:53.800Z,97531.03
2022-08-24T07:55:21.759Z,97533.06
2022-08-24T07:57:50.970Z,97535.06
2022-08-24T08:00:20.526Z,97541.78
2022-08-24T08:02:54.968Z,97544.91
2022-08-24T08:05:25.774Z,97549.19
2022-08-24T08:07:55.121Z,97547.47
2022-08-24T08:10:23.611Z,97553.47
2022-08-24T08:12:53.603Z,97551.34
2022-08-24T08:15:21.592Z,97560.22
2022-08-24T08:18:01.329Z,97556.13
2022-08-24T08:20:30.785Z,97552.97
2022-08-24T08:23:16.710Z,97553.34
2022-08-24T08:26:05.129Z,97566.91
2022-08-24T08:28:59.839Z,97554.69
2022-08-24T08:31:28.559Z,97566.81
2022-08-24T08:33:57.079Z,97566.81
2022-08-24T08:36:27.538Z,97566.69
2022-08-24T08:38:55.660Z,97568.34
2022-08-24T08:42:02.899Z,97571.28
2022-08-24T08:44:50.875Z,97576.34
2022-08-24T08:47:34.531Z,97564.47
2022-08-24T08:50:14.060Z,97568.91
2022-08-24T08:53:18.522Z,97581.75
2022-08-24T08:55:58.340Z,97573.50
2022-08-24T08:58:46.765Z,97568.47
2022-08-24T09:01:44.244Z,97575.19
2022-08-24T09:04:51.537Z,97573.16
2022-08-24T09:07:43.479Z,97579.69
2022-08-24T09:10:31.812Z,97575.28
2022-08-24T09:13:17.901Z,97573.25
2022-08-24T09:16:14.461Z,97575.22
2022-08-24T09:19:00.873Z,97576.06
2022-08-24T09:22:01.358Z,97574.09
2022-08-24T09:24:55.880Z,97572.31
2022-08-24T09:28:01.922Z,97559.78
2022-08-24T09:30:46.992Z,97553.66
2022-08-24T09:33:22.191Z,97553.16
2022-08-24T09:36:10.120Z,97571.34
2022-08-24T09:39:03.019Z,97568.41
2022-08-24T09:42:15.238Z,97568.72
2022-08-24T09:45:25.958Z,97565.91
2022-08-24T09:48:20.114Z,97558.88
2022-08-24T09:51:22.650Z,97557.81
2022-08-24T09:54:35.030Z,97568.19
2022-08-24T09:57:34.168Z,97564.59
2022-08-24T10:00:19.060Z,97562.28
2022-08-24T10:02:59.286Z,97567.03
2022-08-24T10:05:36.706Z,97557.47
2022-08-24T10:08:15.783Z,97557.47
2022-08-24T10:10:53.030Z,97540.56
2022-08-24T10:13:32.437Z,97532.25
2022-08-24T10:16:21.347Z,97531.44
2022-08-24T10:19:04.495Z,97540.13
2022-08-24T10:21:46.803Z,97536.63
2022-08-24T10:24:31.412Z,97549.34
2022-08-24T10:27:09.426Z,97542.31
2022-08-24T10:30:01.946Z,97546.44
2022-08-24T10:32:48.879Z,97538.66
2022-08-24T10:35:23.767Z,97535.38
2022-08-24T10:38:31.662Z,97531.88
2022-08-24T10:41:26.417Z,97519.53
2022-08-24T10:44:17.215Z,97525.09
2022-08-24T10:46:53.517Z,97526.31
2022-08-24T10:50:18.009Z,97536.56
2022-08-24T10:53:14.477Z,97531.34
2022-08-24T10:55:43.420Z,97536.75
2022-08-24T10:58:38.768Z,97534.56
2022-08-24T11:01:20.312Z,97534.22
2022-08-24T11:03:54.682Z,97541.91
2022-08-24T11:06:25.168Z,97534.91
2022-08-24T11:08:58.513Z,97533.94
2022-08-24T11:11:32.745Z,97531.56
2022-08-24T11:14:03.803Z,97534.28
2022-08-24T11:16:37.804Z,97532.97
2022-08-24T11:19:10.816Z,97534.06
2022-08-24T11:21:44.102Z,97535.59
2022-08-24T11:24:29.072Z,97532.88
2022-08-24T11:27:00.152Z,97538.22
2022-08-24T11:29:31.606Z,97537.81
2022-08-24T11:32:00.592Z,97544.59
2022-08-24T11:34:36.553Z,97539.94
2022-08-24T11:37:05.888Z,97534.88
2022-08-24T11:39:37.365Z,97537.78
2022-08-24T11:42:17.421Z,97539.13
2022-08-24T11:44:54.850Z,97550.56
2022-08-24T11:47:47.171Z,97544.75
2022-08-24T11:50:26.463Z,97542.72
2022-08-24T11:53:15.161Z,97547.91
2022-08-24T11:56:00.138Z,97553.53
2022-08-24T11:58:39.992Z,97549.88
2022-08-24T12:01:16.791Z,97549.06
2022-08-24T12:03:53.843Z,97556.88
2022-08-24T12:06:35.323Z,97549.31
2022-08-24T12:09:10.301Z,97544.88
2022-08-24T12:11:47.335Z,97550.38
2022-08-24T12:14:23.396Z,97544.72
2022-08-24T12:16:56.313Z,97546.81
2022-08-24T12:19:29.728Z,97547.84
2022-08-24T12:22:01.726Z,97541.13
2022-08-24T12:24:34.544Z,97549.75
2022-08-24T12:27:07.905Z,97556.03
2022-08-24T12:29:39.593Z,97548.00
2022-08-24T12:32:11.773Z,97545.75
2022-08-24T12:34:50.144Z,97545.41
2022-08-24T12:37:23.171Z,97541.69
2022-08-24T12:39:59.084Z,97537.03
2022-08-24T12:42:35.234Z,97536.81
2022-08-24T12:45:06.240Z,97528.38
2022-08-24T12:47:39.176Z,97527.34
2022-08-24T12:50:12.969Z,97530.03
2022-08-24T12:53:04.933Z,97534.41
2022-08-24T12:56:17.483Z,97533.81
2022-08-24T12:59:16.072Z,97532.91
2022-08-24T13:01:48.856Z,97521.94
2022-08-24T13:04:32.572Z,97524.84
2022-08-24T13:07:06.819Z,97528.44
2022-08-24T13:09:38.325Z,97539.28
2022-08-24T13:12:57.066Z,97538.75
2022-08-24T13:16:03.439Z,97536.75
2022-08-24T13:19:05.344Z,97531.91
2022-08-24T13:21:45.656Z,97534.19
2022-08-24T13:24:54.114Z,97542.66
2022-08-24T13:28:02.444Z,97543.25
2022-08-24T13:30:51.126Z,97542.09
2022-08-24T13:33:21.424Z,97546.25
2022-08-24T13:36:02.188Z,97534.31
2022-08-24T13:39:02.006Z,97528.38
2022-08-24T13:42:01.784Z,97531.13
2022-08-24T13:44:54.779Z,97533.72
2022-08-24T13:47:35.273Z,97535.31
2022-08-24T13:50:11.958Z,97542.38
2022-08-24T13:52:51.438Z,97541.22
2022-08-24T13:55:36.028Z,97541.50
2022-08-24T13:58:35.670Z,97544.63
2022-08-24T14:01:19.358Z,97546.28
2022-08-24T14:04:17.504Z,97544.72
2022-08-24T14:06:56.946Z,97543.50
2022-08-24T14:09:42.102Z,97547.69
2022-08-24T14:12:34.686Z,97545.69
2022-08-24T14:15:14.876Z,97539.81
2022-08-24T14:17:55.340Z,97544.88
2022-08-24T14:20:58.265Z,97543.94
2022-08-24T14:23:35.848Z,97535.22
2022-08-24T14:26:49.800Z,97543.47
2022-08-24T14:29:30.368Z,97541.34
2022-08-24T14:32:35.893Z,97538.97
2022-08-24T14:35:20.720Z,97535.69
2022-08-24T14:38:02.416Z,97535.41
2022-08-24T14:40:37.039Z,97528.25
2022-08-24T14:43:30.081Z,97527.22
2022-08-24T14:46:10.082Z,97526.50
2022-08-24T14:48:49.368Z,97529.72
2022-08-24T14:51:39.870Z,97530.84
2022-08-24T14:54:23.299Z,97533.84
2022-08-24T14:57:11.755Z,97527.66
2022-08-24T14:59:55.399Z,97526.47
2022-08-24T15:03:11.997Z,97518.53
2022-08-24T15:06:03.842Z,97516.41
2022-08-24T15:08:44.332Z,97512.56
2022-08-24T15:11:18.390Z,97512.09
2022-08-24T15:13:52.471Z,97499.94
2022-08-24T15:16:26.698Z,97493.66
2022-08-24T15:19:05.351Z,97486.03
2022-08-24T15:21:48.485Z,97502.19
2022-08-24T15:24:28.246Z,97495.19
2022-08-24T15:27:11.057Z,97496.47
2022-08-24T15:29:49.442Z,97502.13
2022-08-24T15:32:18.958Z,97500.09
2022-08-24T15:34:51.197Z,97503.56
2022-08-24T15:37:29.102Z,97503.44
2022-08-24T15:39:57.496Z,97499.09
2022-08-24T15:42:29.489Z,97507.00
2022-08-24T15:45:02.429Z,97503.34
2022-08-24T15:47:33.639Z,97506.56
2022-08-24T15:50:04.239Z,97498.94
2022-08-24T15:52:52.987Z,97507.69
2022-08-24T15:55:32.906Z,97498.50
2022-08-24T15:58:15.536Z,97497.22
2022-08-24T16:01:01.638Z,97508.56
2022-08-24T16:03:46.859Z,97502.22
2022-08-24T16:06:24.189Z,97507.09
2022-08-24T16:09:05.072Z,97492.41
2022-08-24T16:11:38.407Z,97495.41
2022-08-24T16:14:14.128Z,97508.47
2022-08-24T16:16:46.538Z,97493.19
2022-08-24T16:19:27.490Z,97502.06
2022-08-24T16:22:00.961Z,97499.94
2022-08-24T16:24:33.386Z,97497.50
2022-08-24T16:27:10.473Z,97502.66
2022-08-24T16:29:50.313Z,97497.78
2022-08-24T16:32:22.618Z,97495.41
2022-08-24T16:35:17.918Z,97493.13
2022-08-24T16:37:46.209Z,97491.06
2022-08-24T16:40:14.266Z,97486.28
2022-08-24T16:42:42.555Z,97495.75
2022-08-24T16:45:14.996Z,97494.47
2022-08-24T16:47:47.573Z,97498.59
2022-08-24T16:50:17.992Z,97503.59
2022-08-24T16:52:47.235Z,97498.81
2022-08-24T16:55:15.590Z,97497.91
2022-08-24T16:57:44.488Z,97496.63
2022-08-24T17:00:17.264Z,97500.72
2022-08-24T17:02:48.232Z,97495.69
2022-08-24T17:05:17.917Z,97503.03
2022-08-24T17:07:46.301Z,97497.25
2022-08-24T17:10:17.178Z,97503.16
2022-08-24T17:12:45.377Z,97503.81
2022-08-24T17:15:16.307Z,97507.19
2022-08-24T17:17:51.062Z,97506.72
2022-08-24T17:20:20.815Z,97519.72
2022-08-24T17:22:48.645Z,97508.56
2022-08-24T17:25:16.802Z,97518.56
2022-08-24T17:27:45.354Z,97523.00
2022-08-24T17:30:16.918Z,97523.31
2022-08-24T17:32:45.507Z,97529.16
2022-08-24T17:35:15.046Z,97532.19
2022-08-24T17:37:44.415Z,97530.97
2022-08-24T17:40:15.207Z,97523.94
2022-08-24T17:42:51.212Z,97527.91
2022-08-24T17:45:23.956Z,97532.22
2022-08-24T17:47:53.769Z,97524.97
2022-08-24T17:50:24.723Z,97535.88
2022-08-24T17:52:59.289Z,97531.81
2022-08-24T17:55:29.217Z,97540.69
2022-08-24T17:57:58.063Z,97533.16
2022-08-24T18:00:27.664Z,97536.94
2022-08-24T18:02:55.996Z,97535.28
2022-08-24T18:05:24.472Z,97544.44
2022-08-24T18:07:55.158Z,97543.59
2022-08-24T18:10:27.977Z,97542.78
2022-08-24T18:12:55.981Z,97547.44
2022-08-24T18:15:36.019Z,97551.09
2022-08-24T18:18:17.273Z,97553.16
2022-08-24T18:20:47.161Z,97546.03
2022-08-24T18:23:17.489Z,97552.06
2022-08-24T18:25:53.854Z,97558.72
2022-08-24T18:28:24.039Z,97567.66
2022-08-24T18:30:52.090Z,97563.91
2022-08-24T18:33:22.354Z,97574.38
2022-08-24T18:35:50.583Z,97569.78
2022-08-24T18:38:18.416Z,97570.28
2022-08-24T18:40:52.359Z,97573.88
2022-08-24T18:43:23.513Z,97573.63
2022-08-24T18:45:52.977Z,97574.34
2022-08-24T18:48:22.591Z,97576.50
2022-08-24T18:50:51.078Z,97579.88
2022-08-24T18:53:20.060Z,97586.72
2022-08-24T18:55:48.927Z,97586.38
2022-08-24T18:58:16.816Z,97581.06
2022-08-24T19:00:45.301Z,97580.81
2022-08-24T19:03:18.743Z,97579.97
2022-08-24T19:05:48.028Z,97576.44
2022-08-24T19:08:15.832Z,97581.19
2022-08-24T19:10:43.607Z,97583.78
2022-08-24T19:13:15.947Z,97584.94
2022-08-24T19:15:46.659Z,97583.69
2022-08-24T19:18:16.643Z,97588.03
2022-08-24T19:20:49.055Z,97591.16
2022-08-24T19:23:22.848Z,97592.09
2022-08-24T19:25:51.694Z,97592.09
2022-08-24T19:28:20.781Z,97595.19
2022-08-24T19:30:49.658Z,97590.25
2022-08-24T19:33:25.548Z,97588.69
2022-08-24T19:35:54.354Z,97591.66
2022-08-24T19:38:26.200Z,97591.75
2022-08-24T19:40:57.249Z,97593.56
2022-08-24T19:43:26.229Z,97592.91
2022-08-24T19:46:03.331Z,97595.75
2022-08-24T19:48:31.985Z,97593.91
2022-08-24T19:51:02.111Z,97588.94
2022-08-24T19:53:33.703Z,97597.31
2022-08-24T19:56:01.782Z,97592.22
2022-08-24T19:58:32.138Z,97586.53
2022-08-24T20:01:09.427Z,97586.53
2022-08-24T20:03:37.310Z,97588.84
2022-08-24T20:06:05.634Z,97592.28
2022-08-24T20:08:34.969Z,97586.53
2022-08-24T20:11:03.070Z,97579.69
2022-08-24T20:13:30.838Z,97585.91
2022-08-24T20:15:59.180Z,97588.16
2022-08-24T20:18:31.069Z,97581.63
2022-08-24T20:20:59.607Z,97577.59
2022-08-24T20:23:29.377Z,97579.09
2022-08-24T20:26:00.384Z,97580.97
2022-08-24T20:28:37.857Z,97576.09
2022-08-24T20:31:06.567Z,97589.63
2022-08-24T20:33:35.404Z,97585.81
2022-08-24T20:36:05.529Z,97592.56
2022-08-24T20:38:34.922Z,97589.19
2022-08-24T20:41:04.192Z,97579.47
2022-08-24T20:43:31.958Z,97584.34
2022-08-24T20:46:00.011Z,97584.97
2022-08-24T20:48:31.005Z,97586.97
2022-08-24T20:51:00.284Z,97586.13
2022-08-24T20:53:28.410Z,97581.56
2022-08-24T20:55:57.626Z,97577.91
2022-08-24T20:58:26.924Z,97579.16
2022-08-24T21:00:54.827Z,97580.03
2022-08-24T21:03:22.775Z,97586.53
2022-08-24T21:05:52.390Z,97576.63
2022-08-24T21:08:20.590Z,97587.59
2022-08-24T21:10:48.425Z,97588.56
2022-08-24T21:13:16.230Z,97582.75
2022-08-24T21:15:46.334Z,97579.25
2022-08-24T21:18:14.660Z,97577.13
2022-08-24T21:20:42.670Z,97592.09
2022-08-24T21:23:22.605Z,97591.13
2022-08-24T21:25:50.505Z,97584.59
2022-08-24T21:28:19.969Z,97586.56
2022-08-24T21:30:49.481Z,97586.22
2022-08-24T21:33:35.611Z,97591.31
2022-08-24T21:36:05.062Z,97601.97
2022-08-24T21:38:35.839Z,97597.78
2022-08-24T21:41:04.172Z,97596.50
2022-08-24T21:43:32.782Z,97595.13
2022-08-24T21:46:01.945Z,97599.75
2022-08-24T21:48:29.877Z,97605.03
2022-08-24T21:50:57.673Z,97607.84
2022-08-24T21:53:27.477Z,97591.19
2022-08-24T21:55:56.906Z,97596.59
2022-08-24T21:58:26.289Z,97598.59
2022-08-24T22:00:54.244Z,97591.72
2022-08-24T22:03:37.390Z,97587.53
2022-08-24T22:06:08.584Z,97583.34
2022-08-24T22:08:37.061Z,97586.44
2022-08-24T22:11:05.298Z,97582.13
2022-08-24T22:13:34.203Z,97578.13
2022-08-24T22:16:04.159Z,97583.31
2022-08-24T22:18:35.404Z,97575.09
2022-08-24T22:21:08.070Z,97574.81
2022-08-24T22:23:36.487Z,97574.34
2022-08-24T22:26:05.193Z,97568.59
2022-08-24T22:28:34.024Z,97565.78
2022-08-24T22:31:02.305Z,97558.28
2022-08-24T22:33:31.262Z,97556.69
2022-08-24T22:36:00.825Z,97570.06
2022-08-24T22:38:29.344Z,97560.34
2022-08-24T22:40:57.192Z,97562.06
2022-08-24T22:43:45.075Z,97566.97
2022-08-24T22:46:13.246Z,97558.69
2022-08-24T22:48:41.602Z,97563.59
2022-08-24T22:51:11.230Z,97551.00
2022-08-24T22:53:39.740Z,97550.44
2022-08-24T22:56:15.437Z,97551.34
2022-08-24T22:58:43.402Z,97544.38
2022-08-24T23:01:11.275Z,97540.63
2022-08-24T23:03:39.391Z,97539.72
2022-08-24T23:06:07.691Z,97528.97
2022-08-24T23:08:36.786Z,97529.44
2022-08-24T23:11:04.726Z,97527.94
2022-08-24T23:13:32.610Z,97535.16
2022-08-24T23:16:01.335Z,97528.56
2022-08-24T23:18:47.633Z,97526.13
2022-08-24T23:21:16.265Z,97523.97
2022-08-24T23:23:45.425Z,97514.94
2022-08-24T23:26:18.185Z,97508.09
2022-08-24T23:28:47.446Z,97517.09
2022-08-24T23:31:20.321Z,97516.38
2022-08-24T23:33:49.380Z,97520.31
2022-08-24T23:36:21.069Z,97519.25
2022-08-24T23:38:52.498Z,97522.28
2022-08-24T23:41:22.428Z,97513.44
2022-08-24T23:43:50.401Z,97519.00
2022-08-24T23:46:18.653Z,97518.69
2022-08-24T23:48:55.435Z,97507.59
2022-08-24T23:51:24.875Z,97510.72
2022-08-24T23:53:54.448Z,97511.94
2022-08-24T23:56:26.144Z,97508.28
2022-08-24T23:58:54.235Z,97505.44
